sensor_id;sensor_type;location;lat;lon;timestamp;pressure;altitude;pressure_sealevel;temperature;humidity
59063;BME280;44851;45.648;9.004;2022-09-27T09:49:24;97342.66;;;21.95;44.06
59063;BME280;44851;45.648;9.004;2022-09-27T10:22:34;97331.03;;;22.86;41.34
59063;BME280;44851;45.648;9.004;2022-09-27T11:46:05;97285.78;;;25.00;32.18
59063;BME280;44851;45.648;9.004;2022-09-27T12:46:04;97247.31;;;25.11;29.92
59063;BME280;44851;45.648;9.004;2022-09-27T13:10:16;97253.84;;;24.90;27.31
59063;BME280;44851;45.648;9.004;2022-09-27T15:33:02;97254.56;;;23.08;28.98
59063;BME280;44851;45.648;9.004;2022-09-27T15:35:31;97259.06;;;22.98;26.25
59063;BME280;44851;45.648;9.004;2022-09-27T15:48:45;97264.84;;;22.84;25.76
59063;BME280;44851;45.648;9.004;2022-09-27T15:51:44;97266.44;;;22.75;26.54
59063;BME280;44851;45.648;9.004;2022-09-27T15:54:10;97266.44;;;22.75;24.26
59063;BME280;44851;45.648;9.004;2022-09-27T15:56:38;97270.63;;;22.61;24.06
59063;BME280;44851;45.648;9.004;2022-09-27T15:59:03;97268.53;;;22.68;23.17
59063;BME280;44851;45.648;9.004;2022-09-27T16:01:29;97267.13;;;22.55;23.40
59063;BME280;44851;45.648;9.004;2022-09-27T16:03:58;97269.84;;;22.61;24.44
59063;BME280;44851;45.648;9.004;2022-09-27T16:06:24;97269.47;;;22.52;25.67
59063;BME280;44851;45.648;9.004;2022-09-27T16:08:51;97267.63;;;22.52;25.68
59063;BME280;44851;45.648;9.004;2022-09-27T16:11:17;97273.69;;;22.43;26.86
59063;BME280;44851;45.648;9.004;2022-09-27T16:13:43;97281.16;;;22.46;28.16
59063;BME280;44851;45.648;9.004;2022-09-27T16:16:13;97280.38;;;22.50;27.56
59063;BME280;44851;45.648;9.004;2022-09-27T16:18:40;97280.31;;;22.40;26.80
59063;BME280;44851;45.648;9.004;2022-09-27T16:21:05;97286.94;;;22.32;27.72
59063;BME280;44851;45.648;9.004;2022-09-27T16:23:31;97288.25;;;22.35;27.26
59063;BME280;44851;45.648;9.004;2022-09-27T16:25:56;97298.50;;;22.21;28.13
59063;BME280;44851;45.648;9.004;2022-09-27T16:28:21;97296.28;;;22.03;27.65
59063;BME280;44851;45.648;9.004;2022-09-27T16:30:47;97298.22;;;22.13;28.42
59063;BME280;44851;45.648;9.004;2022-09-27T16:33:12;97298.22;;;22.13;28.53
59063;BME280;44851;45.648;9.004;2022-09-27T16:35:38;97307.94;;;22.02;28.50
59063;BME280;44851;45.648;9.004;2022-09-27T16:38:05;97305.00;;;21.98;28.32
59063;BME280;44851;45.648;9.004;2022-09-27T16:40:31;97313.72;;;21.94;28.31
59063;BME280;44851;45.648;9.004;2022-09-27T16:42:57;97305.72;;;21.89;28.32
59063;BME280;44851;45.648;9.004;2022-09-27T16:45:23;97305.13;;;21.81;28.74
59063;BME280;44851;45.648;9.004;2022-09-27T16:47:48;97308.53;;;21.77;28.04
59063;BME280;44851;45.648;9.004;2022-09-27T16:50:14;97314.53;;;21.67;31.00
59063;BME280;44851;45.648;9.004;2022-09-27T16:52:59;97318.72;;;21.58;30.10
59063;BME280;44851;45.648;9.004;2022-09-27T16:55:25;97310.19;;;21.56;29.09
59063;BME280;44851;45.648;9.004;2022-09-27T16:57:53;97314.91;;;21.49;29.87
59063;BME280;44851;45.648;9.004;2022-09-27T17:00:21;97320.16;;;21.44;30.36
59063;BME280;44851;45.648;9.004;2022-09-27T17:02:47;97314.75;;;21.34;30.71
59063;BME280;44851;45.648;9.004;2022-09-27T17:05:14;97321.38;;;21.31;29.55
59063;BME280;44851;45.648;9.004;2022-09-27T17:07:39;97323.09;;;21.20;29.43
59063;BME280;44851;45.648;9.004;2022-09-27T17:10:06;97332.09;;;21.19;29.30
59063;BME280;44851;45.648;9.004;2022-09-27T17:12:32;97338.00;;;21.05;30.93
59063;BME280;44851;45.648;9.004;2022-09-27T17:14:57;97333.59;;;20.71;30.69
59063;BME280;44851;45.648;9.004;2022-09-27T17:17:23;97336.09;;;20.78;31.03
59063;BME280;44851;45.648;9.004;2022-09-27T17:19:50;97341.00;;;20.69;30.44
59063;BME280;44851;45.648;9.004;2022-09-27T17:22:15;97341.06;;;20.74;31.00
59063;BME280;44851;45.648;9.004;2022-09-27T17:24:41;97342.97;;;20.57;30.85
59063;BME280;44851;45.648;9.004;2022-09-27T17:27:06;97349.47;;;20.33;30.79
59063;BME280;44851;45.648;9.004;2022-09-27T17:29:32;97349.38;;;20.44;31.33
59063;BME280;44851;45.648;9.004;2022-09-27T17:31:57;97350.50;;;20.32;31.89
59063;BME280;44851;45.648;9.004;2022-09-27T17:36:50;97353.53;;;20.23;31.05
59063;BME280;44851;45.648;9.004;2022-09-27T17:39:18;97350.19;;;20.28;31.30
59063;BME280;44851;45.648;9.004;2022-09-27T17:41:47;97355.03;;;20.14;32.20
59063;BME280;44851;45.648;9.004;2022-09-27T17:44:14;97361.25;;;20.08;31.99
59063;BME280;44851;45.648;9.004;2022-09-27T17:46:40;97362.13;;;19.97;32.19
59063;BME280;44851;45.648;9.004;2022-09-27T17:49:06;97367.50;;;20.02;32.86
59063;BME280;44851;45.648;9.004;2022-09-27T17:51:52;97373.66;;;19.91;32.35
59063;BME280;44851;45.648;9.004;2022-09-27T17:54:19;97374.25;;;19.93;33.09
59063;BME280;44851;45.648;9.004;2022-09-27T17:56:45;97370.38;;;19.84;32.52
59063;BME280;44851;45.648;9.004;2022-09-27T17:59:12;97377.69;;;19.77;33.10
59063;BME280;44851;45.648;9.004;2022-09-27T18:01:41;97373.41;;;19.76;32.82
59063;BME280;44851;45.648;9.004;2022-09-27T18:04:08;97381.72;;;19.67;33.60
59063;BME280;44851;45.648;9.004;2022-09-27T18:06:42;97380.69;;;19.68;32.82
59063;BME280;44851;45.648;9.004;2022-09-27T18:09:09;97393.25;;;19.61;33.66
59063;BME280;44851;45.648;9.004;2022-09-27T18:11:36;97387.97;;;19.50;33.64
59063;BME280;44851;45.648;9.004;2022-09-27T18:14:02;97393.25;;;19.50;33.43
59063;BME280;44851;45.648;9.004;2022-09-27T18:16:34;97398.78;;;19.48;33.35
59063;BME280;44851;45.648;9.004;2022-09-27T18:19:04;97406.50;;;19.38;33.88
59063;BME280;44851;45.648;9.004;2022-09-27T18:21:30;97404.06;;;19.19;34.16
59063;BME280;44851;45.648;9.004;2022-09-27T18:23:57;97407.06;;;19.00;34.55
59063;BME280;44851;45.648;9.004;2022-09-27T18:26:24;97407.28;;;19.10;34.77
59063;BME280;44851;45.648;9.004;2022-09-27T18:28:58;97409.56;;;19.06;34.84
59063;BME280;44851;45.648;9.004;2022-09-27T18:31:23;97419.38;;;18.94;34.42
59063;BME280;44851;45.648;9.004;2022-09-27T18:33:49;97421.34;;;18.87;34.94
59063;BME280;44851;45.648;9.004;2022-09-27T18:36:17;97424.28;;;18.79;34.82
59063;BME280;44851;45.648;9.004;2022-09-27T18:38:43;97435.75;;;18.73;35.37
59063;BME280;44851;45.648;9.004;2022-09-27T18:41:19;97432.19;;;18.79;35.52
59063;BME280;44851;45.648;9.004;2022-09-27T18:43:46;97433.38;;;18.59;34.96
59063;BME280;44851;45.648;9.004;2022-09-27T18:46:16;97429.34;;;18.57;35.37
59063;BME280;44851;45.648;9.004;2022-09-27T18:48:43;97428.19;;;18.53;34.89
59063;BME280;44851;45.648;9.004;2022-09-27T18:51:12;97435.16;;;18.47;34.53
59063;BME280;44851;45.648;9.004;2022-09-27T18:53:38;97436.88;;;18.41;34.74
59063;BME280;44851;45.648;9.004;2022-09-27T18:56:09;97442.53;;;18.45;34.34
59063;BME280;44851;45.648;9.004;2022-09-27T18:58:39;97447.31;;;18.25;34.64
59063;BME280;44851;45.648;9.004;2022-09-27T19:01:08;97441.13;;;18.31;34.52
59063;BME280;44851;45.648;9.004;2022-09-27T19:03:34;97451.09;;;18.29;35.22
59063;BME280;44851;45.648;9.004;2022-09-27T19:06:03;97444.97;;;18.16;34.74
59063;BME280;44851;45.648;9.004;2022-09-27T19:08:30;97443.59;;;17.84;34.41
59063;BME280;44851;45.648;9.004;2022-09-27T19:11:03;97442.47;;;17.80;34.07
59063;BME280;44851;45.648;9.004;2022-09-27T19:13:29;97450.63;;;17.90;35.09
59063;BME280;44851;45.648;9.004;2022-09-27T19:15:55;97450.28;;;17.86;34.58
59063;BME280;44851;45.648;9.004;2022-09-27T19:18:23;97461.34;;;17.77;34.83
59063;BME280;44851;45.648;9.004;2022-09-27T19:20:52;97456.16;;;17.70;35.08
59063;BME280;44851;45.648;9.004;2022-09-27T19:23:36;97463.56;;;17.61;35.37
59063;BME280;44851;45.648;9.004;2022-09-27T19:26:11;97471.59;;;17.67;35.29
59063;BME280;44851;45.648;9.004;2022-09-27T19:28:38;97471.31;;;17.56;35.48
59063;BME280;44851;45.648;9.004;2022-09-27T19:31:06;97471.63;;;17.48;35.54
59063;BME280;44851;45.648;9.004;2022-09-27T19:33:35;97477.19;;;17.40;35.89
59063;BME280;44851;45.648;9.004;2022-09-27T19:36:03;97477.59;;;17.74;35.91
59063;BME280;44851;45.648;9.004;2022-09-27T19:38:30;97482.16;;;17.30;36.66
59063;BME280;44851;45.648;9.004;2022-09-27T19:40:55;97478.94;;;17.46;37.36
59063;BME280;44851;45.648;9.004;2022-09-27T19:43:21;97485.38;;;17.50;37.45
59063;BME280;44851;45.648;9.004;2022-09-27T19:45:46;97481.00;;;17.26;38.49
59063;BME280;44851;45.648;9.004;2022-09-27T19:48:12;97484.66;;;17.25;38.65
59063;BME280;44851;45.648;9.004;2022-09-27T19:50:37;97488.72;;;17.02;39.11
59063;BME280;44851;45.648;9.004;2022-09-27T19:53:03;97490.31;;;17.03;39.15
59063;BME280;44851;45.648;9.004;2022-09-27T19:55:28;97489.72;;;17.01;39.26
59063;BME280;44851;45.648;9.004;2022-09-27T19:57:56;97495.72;;;16.90;38.98
59063;BME280;44851;45.648;9.004;2022-09-27T20:00:21;97495.81;;;16.77;38.85
59063;BME280;44851;45.648;9.004;2022-09-27T20:02:46;97490.88;;;16.87;38.81
59063;BME280;44851;45.648;9.004;2022-09-27T20:05:14;97486.69;;;16.79;39.83
59063;BME280;44851;45.648;9.004;2022-09-27T20:07:40;97483.84;;;16.81;39.59
59063;BME280;44851;45.648;9.004;2022-09-27T20:10:09;97494.50;;;16.68;39.96
59063;BME280;44851;45.648;9.004;2022-09-27T20:12:35;97500.44;;;16.56;39.53
59063;BME280;44851;45.648;9.004;2022-09-27T20:15:05;97501.78;;;16.66;39.58
59063;BME280;44851;45.648;9.004;2022-09-27T20:17:31;97494.19;;;16.57;39.62
59063;BME280;44851;45.648;9.004;2022-09-27T20:19:57;97493.47;;;16.69;39.74
59063;BME280;44851;45.648;9.004;2022-09-27T20:22:22;97502.00;;;16.64;39.55
59063;BME280;44851;45.648;9.004;2022-09-27T20:24:48;97503.25;;;16.30;39.68
59063;BME280;44851;45.648;9.004;2022-09-27T20:27:14;97507.56;;;16.49;39.73
59063;BME280;44851;45.648;9.004;2022-09-27T20:29:39;97509.19;;;16.50;39.64
59063;BME280;44851;45.648;9.004;2022-09-27T20:32:04;97500.00;;;16.59;39.54
59063;BME280;44851;45.648;9.004;2022-09-27T20:34:30;97500.91;;;16.15;39.69
59063;BME280;44851;45.648;9.004;2022-09-27T20:36:55;97513.34;;;16.33;40.30
59063;BME280;44851;45.648;9.004;2022-09-27T20:39:21;97513.94;;;16.35;40.47
59063;BME280;44851;45.648;9.004;2022-09-27T20:41:47;97510.16;;;16.31;40.05
59063;BME280;44851;45.648;9.004;2022-09-27T20:44:16;97509.50;;;16.36;40.17
59063;BME280;44851;45.648;9.004;2022-09-27T20:46:42;97514.97;;;16.34;40.36
59063;BME280;44851;45.648;9.004;2022-09-27T20:49:13;97515.81;;;16.28;40.82
59063;BME280;44851;45.648;9.004;2022-09-27T20:51:41;97522.16;;;16.20;41.34
59063;BME280;44851;45.648;9.004;2022-09-27T20:54:09;97520.72;;;16.18;41.01
59063;BME280;44851;45.648;9.004;2022-09-27T20:56:45;97517.31;;;16.11;41.25
59063;BME280;44851;45.648;9.004;2022-09-27T20:59:19;97520.97;;;16.09;40.74
59063;BME280;44851;45.648;9.004;2022-09-27T21:01:46;97526.63;;;16.06;41.28
59063;BME280;44851;45.648;9.004;2022-09-27T21:04:14;97520.81;;;15.98;40.85
59063;BME280;44851;45.648;9.004;2022-09-27T21:06:41;97518.81;;;15.93;40.98
59063;BME280;44851;45.648;9.004;2022-09-27T21:09:08;97524.13;;;15.80;41.60
59063;BME280;44851;45.648;9.004;2022-09-27T21:11:34;97520.47;;;15.81;41.68
59063;BME280;44851;45.648;9.004;2022-09-27T21:13:59;97525.56;;;15.76;41.32
59063;BME280;44851;45.648;9.004;2022-09-27T21:16:27;97516.91;;;15.69;41.87
59063;BME280;44851;45.648;9.004;2022-09-27T21:18:54;97513.28;;;15.63;42.11
59063;BME280;44851;45.648;9.004;2022-09-27T21:21:22;97517.72;;;15.69;41.91
59063;BME280;44851;45.648;9.004;2022-09-27T21:23:53;97518.88;;;15.80;42.03
59063;BME280;44851;45.648;9.004;2022-09-27T21:26:20;97523.81;;;15.56;42.55
59063;BME280;44851;45.648;9.004;2022-09-27T21:28:46;97518.19;;;15.46;42.66
59063;BME280;44851;45.648;9.004;2022-09-27T21:31:14;97519.41;;;15.50;42.68
59063;BME280;44851;45.648;9.004;2022-09-27T21:33:40;97516.31;;;15.60;42.07
59063;BME280;44851;45.648;9.004;2022-09-27T21:36:09;97523.22;;;15.54;42.84
59063;BME280;44851;45.648;9.004;2022-09-27T21:38:35;97532.75;;;15.42;42.94
59063;BME280;44851;45.648;9.004;2022-09-27T21:41:03;97535.19;;;15.37;42.26
59063;BME280;44851;45.648;9.004;2022-09-27T21:43:31;97532.34;;;15.45;42.22
59063;BME280;44851;45.648;9.004;2022-09-27T21:46:05;97535.00;;;15.32;42.07
59063;BME280;44851;45.648;9.004;2022-09-27T21:48:32;97544.06;;;15.36;42.67
59063;BME280;44851;45.648;9.004;2022-09-27T21:51:06;97547.34;;;15.25;40.97
59063;BME280;44851;45.648;9.004;2022-09-27T21:53:33;97545.09;;;15.09;41.73
59063;BME280;44851;45.648;9.004;2022-09-27T21:55:59;97542.06;;;15.12;40.77
59063;BME280;44851;45.648;9.004;2022-09-27T21:58:25;97539.25;;;14.93;40.11
59063;BME280;44851;45.648;9.004;2022-09-27T22:00:52;97537.84;;;14.77;39.90
59063;BME280;44851;45.648;9.004;2022-09-27T22:03:17;97533.22;;;14.73;39.80
59063;BME280;44851;45.648;9.004;2022-09-27T22:05:45;97531.59;;;14.52;38.92
59063;BME280;44851;45.648;9.004;2022-09-27T22:08:11;97525.53;;;14.85;39.79
59063;BME280;44851;45.648;9.004;2022-09-27T22:10:36;97526.53;;;14.90;39.49
59063;BME280;44851;45.648;9.004;2022-09-27T22:13:02;97521.50;;;14.82;40.12
59063;BME280;44851;45.648;9.004;2022-09-27T22:15:28;97520.72;;;14.82;39.28
59063;BME280;44851;45.648;9.004;2022-09-27T22:17:53;97532.00;;;14.82;38.78
59063;BME280;44851;45.648;9.004;2022-09-27T22:20:19;97528.75;;;14.80;39.30
59063;BME280;44851;45.648;9.004;2022-09-27T22:22:44;97523.53;;;14.67;38.33
59063;BME280;44851;45.648;9.004;2022-09-27T22:25:09;97520.28;;;14.65;37.87
59063;BME280;44851;45.648;9.004;2022-09-27T22:27:35;97529.38;;;14.56;37.45
59063;BME280;44851;45.648;9.004;2022-09-27T22:30:00;97527.16;;;14.79;38.40
59063;BME280;44851;45.648;9.004;2022-09-27T22:32:26;97522.50;;;14.68;37.50
59063;BME280;44851;45.648;9.004;2022-09-27T22:34:51;97528.56;;;14.68;37.84
59063;BME280;44851;45.648;9.004;2022-09-27T22:37:18;97522.72;;;14.79;37.16
59063;BME280;44851;45.648;9.004;2022-09-27T22:39:43;97519.50;;;14.71;37.83
59063;BME280;44851;45.648;9.004;2022-09-27T22:42:09;97528.38;;;14.76;37.70
59063;BME280;44851;45.648;9.004;2022-09-27T22:44:34;97533.22;;;14.73;37.41
59063;BME280;44851;45.648;9.004;2022-09-27T22:46:59;97534.03;;;14.60;37.98
59063;BME280;44851;45.648;9.004;2022-09-27T22:49:25;97533.19;;;14.60;38.12
59063;BME280;44851;45.648;9.004;2022-09-27T22:51:50;97532.41;;;14.66;37.45
59063;BME280;44851;45.648;9.004;2022-09-27T22:54:16;97531.97;;;14.49;37.12
59063;BME280;44851;45.648;9.004;2022-09-27T22:56:41;97542.44;;;14.29;35.70
59063;BME280;44851;45.648;9.004;2022-09-27T22:59:07;97535.00;;;14.46;36.31
59063;BME280;44851;45.648;9.004;2022-09-27T23:01:32;97536.03;;;14.51;36.46
59063;BME280;44851;45.648;9.004;2022-09-27T23:04:00;97521.50;;;14.56;36.56
59063;BME280;44851;45.648;9.004;2022-09-27T23:06:26;97514.66;;;14.55;36.39
59063;BME280;44851;45.648;9.004;2022-09-27T23:08:51;97517.47;;;14.53;36.59
59063;BME280;44851;45.648;9.004;2022-09-27T23:11:20;97522.53;;;14.61;36.28
59063;BME280;44851;45.648;9.004;2022-09-27T23:13:47;97515.84;;;14.59;36.59
59063;BME280;44851;45.648;9.004;2022-09-27T23:16:18;97513.03;;;14.60;37.20
59063;BME280;44851;45.648;9.004;2022-09-27T23:18:55;97521.47;;;14.42;37.26
59063;BME280;44851;45.648;9.004;2022-09-27T23:21:21;97520.69;;;14.35;37.65
59063;BME280;44851;45.648;9.004;2022-09-27T23:23:51;97515.84;;;14.45;37.73
59063;BME280;44851;45.648;9.004;2022-09-27T23:26:17;97521.09;;;14.39;37.76
59063;BME280;44851;45.648;9.004;2022-09-27T23:28:45;97519.28;;;14.39;37.13
59063;BME280;44851;45.648;9.004;2022-09-27T23:31:13;97517.03;;;14.23;37.52
59063;BME280;44851;45.648;9.004;2022-09-27T23:33:41;97523.47;;;14.27;37.76
59063;BME280;44851;45.648;9.004;2022-09-27T23:36:08;97522.22;;;14.16;38.12
59063;BME280;44851;45.648;9.004;2022-09-27T23:38:34;97520.81;;;14.14;37.73
59063;BME280;44851;45.648;9.004;2022-09-27T23:41:01;97512.91;;;14.00;38.30
59063;BME280;44851;45.648;9.004;2022-09-27T23:43:26;97504.44;;;13.98;37.77
59063;BME280;44851;45.648;9.004;2022-09-27T23:45:52;97503.25;;;14.08;38.04
59063;BME280;44851;45.648;9.004;2022-09-27T23:48:25;97503.84;;;13.96;38.15
59063;BME280;44851;45.648;9.004;2022-09-27T23:50:51;97508.47;;;13.94;38.12
59063;BME280;44851;45.648;9.004;2022-09-27T23:53:17;97506.03;;;13.93;37.95
59063;BME280;44851;45.648;9.004;2022-09-27T23:55:43;97499.19;;;13.92;38.06
59063;BME280;44851;45.648;9.004;2022-09-27T23:58:09;97500.00;;;13.92;37.72
